createdAt,value
2018-05-18T00:01:05.547Z,80.28
2018-05-18T00:03:33.283Z,80.06
2018-05-18T00:06:01.497Z,80.00
2018-05-18T00:08:31.492Z,80.01
2018-05-18T00:11:04.498Z,79.95
2018-05-18T00:13:33.261Z,80.15
2018-05-18T00:16:02.998Z,80.20
2018-05-18T00:18:30.694Z,80.00
2018-05-18T00:20:58.472Z,80.15
2018-05-18T00:23:27.942Z,80.13
2018-05-18T00:25:55.761Z,80.04
2018-05-18T00:28:23.428Z,79.97
2018-05-18T00:30:51.971Z,80.03
2018-05-18T00:33:22.021Z,80.15
2018-05-18T00:35:50.696Z,80.17
2018-05-18T00:38:18.449Z,80.12
2018-05-18T00:40:46.939Z,80.23
2018-05-18T00:43:14.685Z,80.24
2018-05-18T00:45:42.953Z,80.29
2018-05-18T00:48:12.798Z,80.22
2018-05-18T00:50:41.140Z,80.07
2018-05-18T00:53:09.948Z,80.22
2018-05-18T00:55:42.510Z,80.22
2018-05-18T00:58:11.103Z,80.20
2018-05-18T01:00:38.972Z,80.20
2018-05-18T01:03:07.355Z,80.28
2018-05-18T01:05:35.184Z,80.18
2018-05-18T01:08:03.038Z,80.35
2018-05-18T01:10:30.831Z,80.48
2018-05-18T01:12:59.344Z,80.64
2018-05-18T01:15:27.026Z,80.72
2018-05-18T01:17:56.048Z,80.79
2018-05-18T01:20:26.282Z,80.85
2018-05-18T01:22:53.945Z,80.78
2018-05-18T01:25:22.650Z,80.72
2018-05-18T01:27:51.441Z,80.67
2018-05-18T01:30:20.574Z,80.44
2018-05-18T01:32:48.448Z,80.36
2018-05-18T01:35:16.304Z,80.87
2018-05-18T01:37:44.082Z,80.86
2018-05-18T01:40:11.819Z,80.77
2018-05-18T01:42:39.497Z,80.81
2018-05-18T01:47:57.361Z,80.56
2018-05-18T01:50:25.079Z,80.43
2018-05-18T01:52:52.815Z,80.51
2018-05-18T01:55:20.529Z,80.40
2018-05-18T01:57:48.230Z,80.36
2018-05-18T02:00:16.856Z,80.05
2018-05-18T02:02:45.575Z,80.19
2018-05-18T02:05:14.204Z,80.08
2018-05-18T02:07:41.941Z,80.04
2018-05-18T02:10:10.474Z,79.97
2018-05-18T02:12:38.257Z,79.78
2018-05-18T02:15:05.958Z,79.61
2018-05-18T02:17:33.611Z,79.61
2018-05-18T02:20:01.247Z,79.51
2018-05-18T02:22:29.145Z,79.68
2018-05-18T02:24:57.019Z,79.47
2018-05-18T02:27:24.727Z,79.46
2018-05-18T02:29:52.434Z,79.51
2018-05-18T02:32:20.174Z,79.67
2018-05-18T02:34:47.880Z,79.57
2018-05-18T02:37:15.594Z,79.50
2018-05-18T02:39:43.996Z,79.53
2018-05-18T02:42:12.458Z,79.60
2018-05-18T02:44:41.076Z,79.60
2018-05-18T02:47:09.058Z,79.36
2018-05-18T02:49:36.715Z,79.59
2018-05-18T02:52:05.355Z,79.75
2018-05-18T02:54:33.077Z,79.58
2018-05-18T02:57:00.781Z,79.67
2018-05-18T02:59:29.743Z,79.65
2018-05-18T03:01:57.437Z,79.89
2018-05-18T03:04:25.154Z,79.96
2018-05-18T03:06:52.971Z,80.12
2018-05-18T03:09:21.444Z,80.16
2018-05-18T03:11:49.115Z,80.02
2018-05-18T03:14:16.787Z,79.82
2018-05-18T03:16:44.513Z,79.80
2018-05-18T03:19:14.815Z,79.94
2018-05-18T03:21:42.527Z,80.07
2018-05-18T03:24:11.049Z,80.24
2018-05-18T03:26:39.158Z,80.21
2018-05-18T03:29:08.043Z,80.24
2018-05-18T03:31:37.296Z,80.37
2018-05-18T03:34:07.550Z,80.47
2018-05-18T03:36:35.232Z,80.38
2018-05-18T03:39:02.974Z,80.26
2018-05-18T03:41:30.794Z,80.13
2018-05-18T03:44:00.737Z,80.19
2018-05-18T03:46:28.513Z,80.13
2018-05-18T03:48:56.331Z,80.39
2018-05-18T03:51:24.160Z,80.61
2018-05-18T03:53:52.007Z,80.68
2018-05-18T03:56:19.765Z,80.53
2018-05-18T03:58:47.522Z,80.61
2018-05-18T04:01:27.026Z,80.68
2018-05-18T04:04:06.327Z,80.83
2018-05-18T04:06:49.265Z,80.58
2018-05-18T04:09:17.866Z,80.63
2018-05-18T04:11:45.803Z,80.77
2018-05-18T04:14:14.175Z,80.71
2018-05-18T04:16:41.942Z,80.50
2018-05-18T04:19:09.834Z,80.27
2018-05-18T04:21:38.325Z,80.02
2018-05-18T04:24:09.362Z,80.06
2018-05-18T04:26:37.615Z,80.10
2018-05-18T04:29:06.154Z,80.05
2018-05-18T04:31:35.503Z,79.98
2018-05-18T04:34:04.354Z,80.06
2018-05-18T04:36:32.020Z,80.51
2018-05-18T04:38:59.830Z,80.49
2018-05-18T04:41:27.590Z,80.42
2018-05-18T04:43:55.286Z,80.52
2018-05-18T04:46:23.457Z,80.56
2018-05-18T04:48:52.777Z,80.33
2018-05-18T04:51:20.533Z,80.21
2018-05-18T04:53:48.203Z,80.19
2018-05-18T04:56:15.944Z,80.06
2018-05-18T04:58:43.618Z,79.89
2018-05-18T05:03:45.299Z,79.49
2018-05-18T05:06:12.964Z,79.50
2018-05-18T05:08:40.967Z,79.56
2018-05-18T05:11:12.544Z,79.56
2018-05-18T05:13:42.634Z,79.71
2018-05-18T05:16:10.376Z,79.55
2018-05-18T05:18:38.072Z,79.78
2018-05-18T05:21:06.390Z,79.94
2018-05-18T05:23:34.188Z,79.96
2018-05-18T05:26:02.623Z,79.16
2018-05-18T05:28:33.215Z,79.43
2018-05-18T05:31:03.061Z,79.75
2018-05-18T05:33:32.330Z,79.75
2018-05-18T05:36:01.890Z,79.89
2018-05-18T05:38:29.676Z,79.77
2018-05-18T05:40:58.869Z,79.53
2018-05-18T05:43:28.162Z,79.90
2018-05-18T05:45:57.760Z,79.86
2018-05-18T05:48:25.569Z,79.78
2018-05-18T05:50:53.269Z,79.44
2018-05-18T05:53:21.049Z,79.48
2018-05-18T05:58:39.526Z,78.97
2018-05-18T06:01:10.106Z,78.80
2018-05-18T06:03:39.083Z,78.39
2018-05-18T06:06:10.660Z,78.57
2018-05-18T06:08:40.967Z,78.04
2018-05-18T06:11:08.722Z,77.42
2018-05-18T06:13:40.134Z,77.12
2018-05-18T06:16:08.369Z,76.88
2018-05-18T06:18:40.012Z,76.21
2018-05-18T06:21:12.835Z,75.89
2018-05-18T06:23:40.565Z,75.83
2018-05-18T06:26:08.832Z,74.97
2018-05-18T06:28:36.536Z,74.45
2018-05-18T06:31:06.218Z,74.69
2018-05-18T06:33:33.843Z,74.86
2018-05-18T06:36:01.531Z,74.12
2018-05-18T06:38:30.408Z,73.51
2018-05-18T06:40:58.816Z,73.10
2018-05-18T06:43:26.524Z,72.50
2018-05-18T06:45:55.263Z,71.41
2018-05-18T06:48:22.891Z,71.29
2018-05-18T06:50:50.566Z,70.45
2018-05-18T06:53:18.252Z,70.83
2018-05-18T06:55:45.895Z,70.60
2018-05-18T06:58:13.634Z,69.19
2018-05-18T07:00:41.329Z,70.38
2018-05-18T07:03:10.663Z,69.56
2018-05-18T07:05:38.323Z,68.99
2018-05-18T07:08:06.005Z,68.65
2018-05-18T07:10:41.446Z,67.69
2018-05-18T07:13:10.550Z,66.69
2018-05-18T07:15:38.238Z,66.70
2018-05-18T07:18:05.941Z,67.78
2018-05-18T07:20:33.672Z,66.32
2018-05-18T07:23:02.490Z,66.45
2018-05-18T07:25:30.322Z,67.12
2018-05-18T07:27:58.109Z,65.95
2018-05-18T07:30:25.799Z,65.56
2018-05-18T07:32:53.486Z,65.54
2018-05-18T07:35:24.190Z,64.06
2018-05-18T07:37:54.919Z,64.62
2018-05-18T07:40:22.608Z,65.28
2018-05-18T07:42:51.152Z,65.13
2018-05-18T07:45:18.906Z,64.22
2018-05-18T07:47:47.422Z,63.98
2018-05-18T07:50:15.058Z,63.00
2018-05-18T07:52:43.738Z,63.29
2018-05-18T07:55:12.385Z,62.70
2018-05-18T07:57:41.063Z,62.58
2018-05-18T08:00:11.134Z,62.44
2018-05-18T08:02:38.896Z,62.69
2018-05-18T08:05:06.637Z,62.58
2018-05-18T08:07:34.584Z,62.84
2018-05-18T08:10:02.883Z,59.96
2018-05-18T08:12:30.768Z,61.01
2018-05-18T08:15:03.049Z,60.38
2018-05-18T08:17:36.033Z,60.48
2018-05-18T08:20:11.189Z,59.93
2018-05-18T08:22:38.959Z,58.96
2018-05-18T08:25:07.276Z,59.29
2018-05-18T08:27:34.965Z,59.35
2018-05-18T08:32:42.227Z,61.20
2018-05-18T08:35:15.559Z,60.29
2018-05-18T08:37:43.216Z,59.60
2018-05-18T08:40:10.898Z,61.06
2018-05-18T08:42:38.629Z,60.73
2018-05-18T08:45:06.363Z,60.22
2018-05-18T08:47:34.055Z,59.98
2018-05-18T08:50:02.190Z,62.21
2018-05-18T08:52:34.309Z,60.07
2018-05-18T08:55:02.040Z,60.29
2018-05-18T08:57:29.849Z,59.34
2018-05-18T08:59:57.543Z,58.82
2018-05-18T09:02:25.277Z,58.93
2018-05-18T09:04:52.954Z,58.56
2018-05-18T09:09:54.453Z,58.67
2018-05-18T09:12:23.429Z,58.54
2018-05-18T09:14:51.683Z,56.03
2018-05-18T09:17:19.650Z,56.99
2018-05-18T09:19:47.364Z,56.70
2018-05-18T09:22:15.051Z,57.96
2018-05-18T09:24:42.762Z,58.75
2018-05-18T09:27:10.717Z,59.87
2018-05-18T09:29:39.279Z,57.86
2018-05-18T09:32:09.053Z,55.80
2018-05-18T09:34:36.622Z,57.65
2018-05-18T09:37:04.438Z,58.67
2018-05-18T09:39:32.169Z,58.38
2018-05-18T09:41:59.854Z,56.74
2018-05-18T09:44:31.169Z,56.69
2018-05-18T09:46:59.028Z,56.09
2018-05-18T09:49:26.677Z,57.73
2018-05-18T09:51:58.383Z,58.63
2018-05-18T09:54:26.362Z,56.82
2018-05-18T09:56:53.758Z,56.36
2018-05-18T09:59:21.480Z,57.31
2018-05-18T10:01:50.010Z,56.81
2018-05-18T10:04:19.681Z,57.98
2018-05-18T10:06:47.482Z,57.81
2018-05-18T10:09:15.499Z,58.33
2018-05-18T10:11:43.161Z,59.90
2018-05-18T10:14:10.851Z,58.81
2018-05-18T10:16:39.684Z,56.99
2018-05-18T10:19:08.477Z,56.63
2018-05-18T10:21:36.723Z,56.74
2018-05-18T10:24:04.501Z,57.84
2018-05-18T10:26:32.101Z,57.34
2018-05-18T10:29:01.296Z,56.89
2018-05-18T10:31:30.577Z,56.40
2018-05-18T10:33:58.177Z,55.49
2018-05-18T10:36:25.828Z,56.59
2018-05-18T10:38:53.582Z,56.35
2018-05-18T10:41:23.124Z,56.34
2018-05-18T10:43:51.543Z,54.90
2018-05-18T10:46:19.267Z,56.94
2018-05-18T10:48:47.055Z,56.09
2018-05-18T10:51:17.795Z,56.18
2018-05-18T10:53:45.522Z,57.64
2018-05-18T10:56:13.718Z,57.58
2018-05-18T10:58:41.639Z,54.75
2018-05-18T11:01:11.182Z,57.02
2018-05-18T11:03:39.219Z,56.30
2018-05-18T11:06:08.807Z,55.93
2018-05-18T11:08:39.813Z,53.92
2018-05-18T11:11:11.887Z,55.37
2018-05-18T11:13:40.668Z,54.98
2018-05-18T11:16:09.002Z,55.47
2018-05-18T11:18:36.757Z,54.61
2018-05-18T11:21:05.644Z,53.69
2018-05-18T11:23:34.325Z,54.22
2018-05-18T11:26:02.988Z,53.32
2018-05-18T11:28:30.728Z,52.99
2018-05-18T11:31:05.771Z,53.86
2018-05-18T11:33:37.689Z,53.02
2018-05-18T11:36:07.005Z,53.41
2018-05-18T11:38:38.221Z,52.60
2018-05-18T11:41:08.937Z,52.82
2018-05-18T11:43:41.779Z,52.65
2018-05-18T11:46:19.102Z,52.74
2018-05-18T11:48:46.636Z,51.73
2018-05-18T11:51:14.876Z,50.61
2018-05-18T11:53:44.897Z,51.14
2018-05-18T11:59:23.381Z,52.66
2018-05-18T12:01:52.021Z,52.08
2018-05-18T12:04:25.059Z,51.88
2018-05-18T12:06:55.329Z,49.90
2018-05-18T12:09:24.662Z,51.98
2018-05-18T12:12:11.363Z,52.05
2018-05-18T12:14:42.328Z,52.36
2018-05-18T12:17:20.693Z,52.20
2018-05-18T12:19:59.192Z,50.53
2018-05-18T12:23:03.116Z,52.98
2018-05-18T12:25:54.197Z,51.61
2018-05-18T18:31:16.472Z,52.76
2018-05-18T18:33:57.199Z,52.57
2018-05-18T18:36:46.947Z,52.82
2018-05-18T18:39:20.709Z,53.26
2018-05-18T18:42:04.561Z,53.32
2018-05-18T18:44:38.662Z,53.93
2018-05-18T18:47:24.967Z,54.16
2018-05-18T18:49:58.330Z,54.58
2018-05-18T18:52:55.620Z,54.98
2018-05-18T18:58:18.864Z,57.25
2018-05-18T20:23:06.257Z,70.48
2018-05-18T20:28:47.583Z,72.31
2018-05-18T20:32:02.641Z,71.21
2018-05-18T21:16:41.960Z,72.73
2018-05-18T22:58:00.200Z,77.28
2018-05-18T23:28:12.266Z,78.17
2018-05-18T23:41:30.602Z,76.80
2018-05-18T23:47:03.584Z,77.10
2018-05-18T23:58:15.890Z,76.36
